»·PEaware :: N544JH KSNA-KLAS

N544JH :: KSNA-KLAS

FLIGHT INFORMATION

Flight Status: Arrived
Operator: Privately registered:
United States
More flights under this callsign
Pilot: Merv A. (1555)
Aircraft: Unknown
(B60T)
More flights by this aircraft type
Origin: KSNA John Wayne-Orange Co
United States
Destination: KLAS McCarran Intl
United States
More flights between these airports :: More routes between these airports
Route: +MUSEL8 DAG CRESO3
File this flight plan on PilotEdge
Remarks:
Altitude:
(Current/Filed)
21,000ft
Speed:
(Current/Filed)
260kts
Departed: 24-Nov-17 02:12 PM
Arrived: 24-Nov-17 03:17 PM
Distance/Time
Traveled:
196nm/1:05
Distance/Time
To Go:
Arrived

Flight Plot

Page will automatically refresh every two minutes.


Map Options




Map Legend


Flown Route
Filed Route
Departure Airport
Arrival Airport
Navaid (VOR, NDB)
Fix

Horizontal Profiles

Position Reports

Time Latitude Longitude Heading Altitude Ground
Speed
24-Nov-17 13:44 33.667690 -117.875634 28 59ft 0kts
24-Nov-17 13:45 33.667690 -117.875634 28 59ft 0kts
24-Nov-17 13:46 33.667690 -117.875634 28 59ft 0kts
24-Nov-17 13:47 33.667690 -117.875634 28 59ft 0kts
24-Nov-17 13:48 33.667690 -117.875634 28 59ft 0kts
24-Nov-17 13:49 33.667690 -117.875634 28 59ft 0kts
24-Nov-17 13:50 33.667690 -117.875634 28 59ft 0kts
24-Nov-17 13:51 33.667690 -117.875634 28 59ft 0kts
24-Nov-17 13:52 33.667690 -117.875634 28 59ft 0kts
24-Nov-17 13:53 33.667690 -117.875634 28 59ft 0kts
24-Nov-17 13:54 33.667691 -117.875634 28 59ft 0kts
24-Nov-17 13:55 33.667694 -117.875632 28 59ft 0kts
24-Nov-17 13:56 33.667696 -117.875631 28 59ft 0kts
24-Nov-17 13:57 33.667699 -117.875629 28 59ft 0kts
24-Nov-17 13:58 33.667701 -117.875627 28 59ft 0kts
24-Nov-17 13:59 33.667704 -117.875626 28 59ft 0kts
24-Nov-17 14:00 33.667706 -117.875624 28 59ft 0kts
24-Nov-17 14:01 33.667709 -117.875622 28 59ft 0kts
24-Nov-17 14:02 33.667711 -117.875621 28 59ft 0kts
24-Nov-17 14:03 33.667713 -117.875619 28 59ft 0kts
24-Nov-17 14:04 33.667716 -117.875618 28 59ft 0kts
24-Nov-17 14:05 33.667688 -117.875394 107 59ft 0kts
24-Nov-17 14:06 33.667688 -117.875391 107 59ft 0kts
24-Nov-17 14:07 33.667789 -117.875204 28 59ft 3kts
24-Nov-17 14:08 33.669729 -117.874104 27 59ft 14kts
24-Nov-17 14:09 33.673134 -117.872005 28 59ft 13kts
24-Nov-17 14:10 33.676339 -117.869935 28 59ft 12kts
24-Nov-17 14:11 33.679553 -117.868043 13 59ft 12kts
24-Nov-17 14:12 33.681213 -117.866900 72 59ft 1kts
24-Nov-17 14:13 33.681190 -117.866476 108 59ft 0kts
24-Nov-17 14:14 33.681141 -117.866336 116 59ft 2kts
24-Nov-17 14:15 33.680701 -117.865709 208 59ft 0kts
24-Nov-17 14:16 33.680698 -117.865711 208 59ft 0kts
24-Nov-17 14:17 33.679714 -117.866332 207 59ft 43kts
24-Nov-17 14:18 33.655772 -117.881380 207 1343ft 103kts
24-Nov-17 14:19 33.623257 -117.891268 188 3633ft 138kts
24-Nov-17 14:20 33.581977 -117.896636 186 5872ft 155kts
24-Nov-17 14:21 33.549825 -117.922209 259 7967ft 166kts
24-Nov-17 14:22 33.541323 -117.979662 262 9814ft 170kts
24-Nov-17 14:23 33.536999 -118.033630 292 12015ft 156kts
24-Nov-17 14:24 33.577187 -118.047500 350 14221ft 163kts
24-Nov-17 14:25 33.621687 -118.048784 346 16383ft 161kts
24-Nov-17 14:26 33.667350 -118.050546 345 18290ft 174kts
24-Nov-17 14:27 33.720556 -118.052526 347 19352ft 201kts
24-Nov-17 14:28 33.777401 -118.053968 356 20353ft 212kts
24-Nov-17 14:29 33.831241 -118.011754 29 20938ft 248kts
24-Nov-17 14:30 33.889641 -117.958618 29 20931ft 271kts
24-Nov-17 14:31 33.950918 -117.902972 29 20939ft 281kts
24-Nov-17 14:32 34.013787 -117.845818 29 20956ft 284kts
24-Nov-17 14:33 34.076911 -117.787982 34 20981ft 287kts
24-Nov-17 14:34 34.131570 -117.715522 42 20987ft 292kts
24-Nov-17 14:35 34.185685 -117.642492 42 20981ft 292kts
24-Nov-17 14:36 34.239726 -117.569472 42 20979ft 289kts
24-Nov-17 14:37 34.292999 -117.497354 42 20988ft 287kts
24-Nov-17 14:38 34.346063 -117.425379 41 21000ft 286kts
24-Nov-17 14:39 34.398950 -117.353482 41 21017ft 286kts
24-Nov-17 14:40 34.452139 -117.281024 41 21031ft 286kts
24-Nov-17 14:41 34.504939 -117.208952 41 21058ft 285kts
24-Nov-17 14:42 34.557589 -117.136940 41 21075ft 286kts
24-Nov-17 14:43 34.610415 -117.064526 41 21085ft 286kts
24-Nov-17 14:44 34.663022 -116.992275 41 21072ft 286kts
24-Nov-17 14:45 34.715648 -116.919837 41 21044ft 286kts
24-Nov-17 14:46 34.768264 -116.847276 41 21016ft 286kts
24-Nov-17 14:47 34.820915 -116.774491 41 21001ft 285kts
24-Nov-17 14:48 34.873234 -116.702023 41 21000ft 285kts
24-Nov-17 14:49 34.925442 -116.629557 41 21004ft 284kts
24-Nov-17 14:50 34.974016 -116.552839 56 21017ft 291kts
24-Nov-17 14:51 35.012351 -116.466003 55 21021ft 291kts
24-Nov-17 14:52 35.050869 -116.379071 55 21026ft 291kts
24-Nov-17 14:53 35.089503 -116.291779 55 21028ft 291kts
24-Nov-17 14:54 35.127905 -116.204743 55 20794ft 292kts
24-Nov-17 14:55 35.166306 -116.117438 55 19509ft 285kts
24-Nov-17 14:56 35.203038 -116.033801 56 18155ft 276kts
24-Nov-17 14:57 35.238841 -115.952082 56 16757ft 269kts
24-Nov-17 14:58 35.273618 -115.872497 57 15416ft 261kts
24-Nov-17 14:59 35.307558 -115.794673 58 14115ft 254kts
24-Nov-17 15:00 35.352049 -115.731763 43 13072ft 242kts
24-Nov-17 15:01 35.396982 -115.671975 44 11895ft 234kts
24-Nov-17 15:02 35.440129 -115.614352 44 10860ft 226kts
24-Nov-17 15:03 35.482016 -115.558278 45 10089ft 216kts
24-Nov-17 15:04 35.521551 -115.505324 45 10009ft 212kts
24-Nov-17 15:05 35.562266 -115.450731 45 10011ft 220kts
24-Nov-17 15:06 35.603853 -115.394825 45 10013ft 220kts
24-Nov-17 15:07 35.644691 -115.339840 45 10016ft 216kts
24-Nov-17 15:08 35.685726 -115.284631 45 10020ft 220kts
24-Nov-17 15:09 35.727541 -115.228659 45 10023ft 221kts
24-Nov-17 15:10 35.769035 -115.173107 45 10021ft 218kts
24-Nov-17 15:11 35.809049 -115.117278 46 10024ft 217kts
24-Nov-17 15:12 35.848830 -115.061462 46 10026ft 217kts
24-Nov-17 15:13 35.889561 -115.007456 44 10025ft 217kts
24-Nov-17 15:14 35.941436 -114.978740 353 9367ft 213kts
24-Nov-17 15:15 35.997491 -114.987025 351 8076ft 199kts
24-Nov-17 15:16 36.051225 -114.995882 351 7053ft 179kts
24-Nov-17 15:17 36.096510 -115.005960 321 6241ft 153kts
24-Nov-17 15:18 36.111207 -115.046544 289 5277ft 121kts
24-Nov-17 15:19 36.122808 -115.086050 288 4163ft 124kts
24-Nov-17 15:20 36.132177 -115.118931 289 3601ft 126kts
24-Nov-17 15:21 36.108946 -115.150875 204 2650ft 121kts
24-Nov-17 15:22 36.089921 -115.162058 204 2184ft 32kts
24-Nov-17 15:23 36.089407 -115.163495 292 2184ft 0kts
24-Nov-17 15:24 36.089408 -115.163499 292 2184ft 0kts
24-Nov-17 15:25 36.089409 -115.163502 292 2184ft 0kts
24-Nov-17 15:26 36.089410 -115.163506 292 2184ft 0kts
24-Nov-17 15:27 36.089412 -115.163510 292 2184ft 0kts
24-Nov-17 15:28 36.088829 -115.165062 203 2184ft 12kts
24-Nov-17 15:29 36.086714 -115.167054 201 2184ft 8kts
24-Nov-17 15:30 36.086397 -115.167547 47 2184ft 0kts
24-Nov-17 15:31 36.086398 -115.167546 47 2184ft 0kts
24-Nov-17 15:32 36.086398 -115.167546 47 2184ft 0kts

Navigation Log

Ident Type
1. KSNA Airport
2. MUSEL Fix
3. MUSEL Fix
4. SLI Navaid
5. POM Navaid
6. GARDY Fix
7. DAG Navaid
8. DAG Navaid
9. JOKUR Fix
10. DANBY Fix
11. SARAS Fix
12. WHIGG Fix
13. CRESO Fix
14. BLD Navaid
15. KLAS Airport